createdAt,value
2019-02-17T00:00:16.969Z,94.78
2019-02-17T00:02:48.207Z,95.07
2019-02-17T00:05:19.472Z,95.45
2019-02-17T00:07:53.188Z,95.47
2019-02-17T00:10:24.423Z,95.82
2019-02-17T00:12:55.695Z,96.09
2019-02-17T00:15:26.954Z,95.95
2019-02-17T00:17:58.286Z,95.94
2019-02-17T00:20:29.478Z,95.89
2019-02-17T00:23:00.776Z,96.04
2019-02-17T00:25:32.054Z,96.06
2019-02-17T00:28:03.357Z,95.98
2019-02-17T00:30:34.607Z,95.91
2019-02-17T00:33:05.784Z,96.14
2019-02-17T00:35:37.065Z,96.32
2019-02-17T00:38:08.370Z,96.26
2019-02-17T00:40:39.547Z,96.12
2019-02-17T00:43:10.677Z,96.00
2019-02-17T00:45:41.968Z,96.07
2019-02-17T00:48:13.229Z,95.94
2019-02-17T00:50:44.557Z,95.99
2019-02-17T00:53:15.924Z,96.21
2019-02-17T00:55:47.299Z,96.25
2019-02-17T00:58:18.590Z,96.30
2019-02-17T01:00:49.912Z,96.54
2019-02-17T01:03:21.162Z,96.65
2019-02-17T01:05:52.448Z,96.75
2019-02-17T01:08:23.721Z,96.68
2019-02-17T01:11:14.041Z,96.56
2019-02-17T01:13:45.345Z,96.56
2019-02-17T01:16:16.625Z,96.43
2019-02-17T01:18:47.886Z,96.08
2019-02-17T01:21:19.165Z,96.04
2019-02-17T01:23:50.478Z,96.13
2019-02-17T01:26:21.776Z,96.16
2019-02-17T01:28:53.033Z,96.34
2019-02-17T01:31:24.372Z,96.63
2019-02-17T01:33:55.580Z,96.76
2019-02-17T01:36:26.913Z,96.97
2019-02-17T01:38:58.240Z,97.02
2019-02-17T01:41:29.604Z,97.11
2019-02-17T01:44:03.620Z,97.03
2019-02-17T01:46:34.852Z,97.20
2019-02-17T01:49:06.066Z,97.53
2019-02-17T01:51:37.369Z,97.50
2019-02-17T01:54:08.643Z,97.64
2019-02-17T01:56:39.897Z,98.03
2019-02-17T01:59:11.179Z,98.20
2019-02-17T02:01:42.646Z,98.30
2019-02-17T02:04:13.920Z,98.47
2019-02-17T02:06:45.236Z,98.61
2019-02-17T02:09:16.463Z,98.42
2019-02-17T02:11:47.713Z,98.34
2019-02-17T02:14:19.013Z,98.48
2019-02-17T02:16:50.270Z,98.42
2019-02-17T02:19:21.656Z,98.44
2019-02-17T02:21:52.914Z,98.49
2019-02-17T02:24:24.148Z,98.55
2019-02-17T02:26:55.373Z,98.61
2019-02-17T02:29:26.652Z,98.58
2019-02-17T02:31:57.856Z,98.69
2019-02-17T02:34:29.158Z,98.67
2019-02-17T02:37:00.394Z,98.56
2019-02-17T02:39:31.725Z,98.64
2019-02-17T02:42:02.946Z,98.76
2019-02-17T02:44:34.229Z,98.76
2019-02-17T02:47:05.402Z,98.79
2019-02-17T02:49:36.668Z,99.05
2019-02-17T02:52:07.951Z,99.64
2019-02-17T02:54:39.215Z,99.85
2019-02-17T02:57:10.408Z,99.81
2019-02-17T02:59:51.973Z,99.79
2019-02-17T03:02:14.604Z,99.87
2019-02-17T03:04:45.877Z,100.00
2019-02-17T03:07:19.792Z,100.00
2019-02-17T03:09:51.057Z,100.00
2019-02-17T03:12:22.318Z,100.00
2019-02-17T03:14:53.592Z,100.00
2019-02-17T03:17:24.837Z,100.00
2019-02-17T03:19:56.135Z,100.00
2019-02-17T03:22:27.411Z,100.00
2019-02-17T03:24:58.691Z,100.00
2019-02-17T03:27:29.843Z,100.00
2019-02-17T03:30:04.872Z,100.00
2019-02-17T03:32:34.086Z,100.00
2019-02-17T03:35:05.461Z,100.00
2019-02-17T03:37:36.742Z,100.00
2019-02-17T03:40:08.939Z,100.00
2019-02-17T03:42:40.087Z,100.00
2019-02-17T03:45:11.517Z,100.00
2019-02-17T03:47:42.759Z,100.00
2019-02-17T03:50:14.042Z,100.00
2019-02-17T03:52:45.266Z,100.00
2019-02-17T03:55:16.565Z,100.00
2019-02-17T03:57:47.813Z,100.00
2019-02-17T04:00:19.111Z,100.00
2019-02-17T04:02:50.344Z,100.00
2019-02-17T04:05:21.567Z,100.00
2019-02-17T04:07:52.899Z,100.00
2019-02-17T04:10:24.167Z,100.00
2019-02-17T04:12:55.451Z,100.00
2019-02-17T04:15:26.727Z,100.00
2019-02-17T04:17:57.955Z,100.00
2019-02-17T04:20:29.133Z,100.00
2019-02-17T04:23:00.388Z,100.00
2019-02-17T04:25:31.649Z,100.00
2019-02-17T04:28:02.906Z,100.00
2019-02-17T04:30:34.205Z,100.00
2019-02-17T04:33:05.481Z,100.00
2019-02-17T04:35:36.730Z,100.00
2019-02-17T04:38:08.046Z,100.00
2019-02-17T04:40:39.325Z,100.00
2019-02-17T04:43:10.490Z,100.00
2019-02-17T04:45:41.740Z,100.00
2019-02-17T04:48:13.032Z,100.00
2019-02-17T04:50:44.276Z,100.00
2019-02-17T04:53:15.465Z,100.00
2019-02-17T04:55:46.744Z,100.00
2019-02-17T04:58:18.005Z,100.00
2019-02-17T05:00:50.026Z,100.00
2019-02-17T05:03:21.423Z,100.00
2019-02-17T05:05:52.713Z,100.00
2019-02-17T05:08:23.960Z,100.00
2019-02-17T05:10:55.324Z,100.00
2019-02-17T05:13:26.491Z,100.00
2019-02-17T05:15:57.777Z,100.00
2019-02-17T05:18:29.017Z,100.00
2019-02-17T05:21:00.287Z,100.00
2019-02-17T05:23:31.522Z,100.00
2019-02-17T05:26:02.891Z,100.00
2019-02-17T05:28:34.184Z,100.00
2019-02-17T05:31:05.520Z,100.00
2019-02-17T05:33:36.811Z,100.00
2019-02-17T05:36:08.004Z,100.00
2019-02-17T05:38:39.208Z,100.00
2019-02-17T05:41:10.515Z,100.00
2019-02-17T05:43:41.815Z,100.00
2019-02-17T05:46:32.046Z,100.00
2019-02-17T05:49:03.367Z,100.00
2019-02-17T05:51:34.602Z,100.00
2019-02-17T05:54:05.933Z,100.00
2019-02-17T05:56:37.209Z,100.00
2019-02-17T05:59:08.478Z,100.00
2019-02-17T06:01:39.757Z,100.00
2019-02-17T06:04:11.030Z,100.00
2019-02-17T06:06:42.298Z,100.00
2019-02-17T06:09:13.512Z,100.00
2019-02-17T06:11:44.797Z,100.00
2019-02-17T06:14:15.947Z,100.00
2019-02-17T06:16:47.244Z,100.00
2019-02-17T06:19:18.390Z,100.00
2019-02-17T06:21:49.659Z,100.00
2019-02-17T06:24:20.937Z,100.00
2019-02-17T06:26:52.197Z,100.00
2019-02-17T06:29:23.507Z,100.00
2019-02-17T06:31:54.741Z,100.00
2019-02-17T06:34:25.914Z,100.00
2019-02-17T06:36:57.079Z,100.00
2019-02-17T06:39:28.393Z,100.00
2019-02-17T06:41:59.630Z,100.00
2019-02-17T06:44:30.803Z,100.00
2019-02-17T06:47:06.016Z,100.00
2019-02-17T06:49:37.311Z,100.00
2019-02-17T06:52:08.558Z,100.00
2019-02-17T06:54:39.852Z,100.00
2019-02-17T06:57:17.522Z,100.00
2019-02-17T06:59:48.816Z,100.00
2019-02-17T07:02:20.088Z,100.00
2019-02-17T07:05:22.033Z,100.00
2019-02-17T07:07:53.267Z,100.00
2019-02-17T07:10:24.552Z,100.00
2019-02-17T07:12:55.751Z,100.00
2019-02-17T07:15:27.049Z,100.00
2019-02-17T07:17:59.195Z,100.00
2019-02-17T07:20:30.575Z,100.00
2019-02-17T07:23:01.835Z,100.00
2019-02-17T07:25:33.234Z,100.00
2019-02-17T07:28:04.572Z,100.00
2019-02-17T07:30:35.852Z,100.00
2019-02-17T07:33:07.175Z,100.00
2019-02-17T07:35:38.418Z,100.00
2019-02-17T07:38:09.884Z,100.00
2019-02-17T07:40:41.096Z,100.00
2019-02-17T07:43:12.396Z,100.00
2019-02-17T07:45:43.764Z,100.00
2019-02-17T07:48:15.088Z,100.00
2019-02-17T07:50:46.355Z,100.00
2019-02-17T07:53:17.703Z,100.00
2019-02-17T07:55:48.923Z,100.00
2019-02-17T07:58:20.219Z,100.00
2019-02-17T08:00:51.469Z,100.00
2019-02-17T08:03:22.729Z,100.00
2019-02-17T08:05:53.960Z,100.00
2019-02-17T08:08:25.212Z,97.83
2019-02-17T08:11:03.758Z,97.91
2019-02-17T08:13:29.418Z,97.92
2019-02-17T08:16:00.671Z,96.92
2019-02-17T08:18:31.813Z,86.81
2019-02-17T08:21:03.087Z,86.53
2019-02-17T08:23:34.311Z,82.20
2019-02-17T08:26:05.581Z,77.64
2019-02-17T08:28:36.724Z,73.19
2019-02-17T08:31:08.018Z,68.16
2019-02-17T08:33:39.215Z,67.30
2019-02-17T08:36:10.452Z,64.49
2019-02-17T08:38:41.723Z,61.33
2019-02-17T08:41:12.986Z,59.97
2019-02-17T08:43:44.285Z,57.09
2019-02-17T08:46:15.544Z,55.75
2019-02-17T08:48:46.863Z,54.57
2019-02-17T08:51:18.139Z,54.55
2019-02-17T08:53:49.414Z,53.43
2019-02-17T08:56:20.676Z,53.40
2019-02-17T08:58:51.983Z,49.94
2019-02-17T09:01:23.278Z,51.46
2019-02-17T09:03:54.579Z,49.29
2019-02-17T09:06:25.821Z,48.82
2019-02-17T09:08:57.053Z,48.78
2019-02-17T09:11:47.374Z,46.52
2019-02-17T09:14:18.674Z,46.43
2019-02-17T09:16:49.845Z,45.33
2019-02-17T09:19:21.252Z,46.45
2019-02-17T09:21:52.520Z,45.55
2019-02-17T09:24:23.719Z,46.31
2019-02-17T09:26:54.869Z,47.04
2019-02-17T09:29:26.045Z,45.48
2019-02-17T09:31:59.336Z,46.63
2019-02-17T09:34:30.253Z,46.72
2019-02-17T09:37:01.505Z,46.06
2019-02-17T09:39:32.812Z,45.77
2019-02-17T09:42:04.175Z,46.69
2019-02-17T09:44:35.484Z,46.79
2019-02-17T09:47:06.683Z,48.51
2019-02-17T09:49:37.870Z,49.13
2019-02-17T09:52:09.001Z,49.65
2019-02-17T09:54:40.148Z,50.17
2019-02-17T09:57:11.329Z,50.63
2019-02-17T09:59:42.629Z,51.33
2019-02-17T10:02:13.858Z,50.71
2019-02-17T10:04:45.144Z,50.72
2019-02-17T10:07:16.371Z,50.05
2019-02-17T10:09:47.674Z,51.00
2019-02-17T10:12:18.926Z,51.43
2019-02-17T10:14:50.217Z,50.84
2019-02-17T10:17:21.452Z,51.14
2019-02-17T10:19:52.667Z,51.11
2019-02-17T10:22:23.991Z,50.57
2019-02-17T10:24:55.260Z,50.09
2019-02-17T10:27:26.940Z,49.64
2019-02-17T10:29:58.146Z,49.02
2019-02-17T10:32:37.069Z,48.61
2019-02-17T10:35:02.504Z,48.69
2019-02-17T10:37:34.016Z,47.73
2019-02-17T10:40:07.345Z,47.14
2019-02-17T10:42:38.676Z,46.70
2019-02-17T10:45:11.443Z,46.21
2019-02-17T10:47:42.739Z,45.84
2019-02-17T10:50:14.627Z,46.48
2019-02-17T10:52:48.819Z,45.78
2019-02-17T10:55:23.265Z,44.59
2019-02-17T10:57:57.298Z,44.69
2019-02-17T11:00:30.319Z,44.72
2019-02-17T11:03:10.613Z,42.57
2019-02-17T11:05:42.175Z,43.34
2019-02-17T11:08:14.125Z,43.58
2019-02-17T11:10:47.293Z,42.05
2019-02-17T11:13:19.021Z,41.09
2019-02-17T11:15:50.383Z,40.62
2019-02-17T11:18:21.850Z,39.82
2019-02-17T11:20:53.178Z,40.23
2019-02-17T11:23:24.715Z,40.04
2019-02-17T11:25:56.080Z,40.38
2019-02-17T11:28:27.329Z,40.14
2019-02-17T11:30:58.715Z,40.56
2019-02-17T11:33:30.229Z,39.29
2019-02-17T11:36:01.717Z,40.21
2019-02-17T11:38:33.125Z,41.23
2019-02-17T11:41:04.781Z,38.74
2019-02-17T11:43:36.283Z,39.31
2019-02-17T11:46:07.682Z,39.90
2019-02-17T11:48:39.328Z,39.09
2019-02-17T11:51:10.501Z,39.22
2019-02-17T11:53:41.744Z,38.76
2019-02-17T11:56:13.016Z,37.87
2019-02-17T11:58:44.318Z,37.75
2019-02-17T12:01:15.585Z,36.63
2019-02-17T12:03:46.897Z,36.54
2019-02-17T12:06:19.393Z,36.81
2019-02-17T12:08:52.421Z,36.39
2019-02-17T12:11:23.687Z,35.38
2019-02-17T12:13:54.997Z,35.55
2019-02-17T12:16:36.492Z,35.98
2019-02-17T12:18:59.124Z,35.41
2019-02-17T12:21:37.161Z,35.78
2019-02-17T12:24:13.165Z,36.29
2019-02-17T12:27:06.036Z,35.34
2019-02-17T12:29:58.973Z,35.41
2019-02-17T12:32:31.109Z,36.10
2019-02-17T12:35:02.420Z,35.49
2019-02-17T12:37:33.820Z,35.07
2019-02-17T12:40:05.475Z,35.30
2019-02-17T12:42:36.896Z,34.83
2019-02-17T12:45:12.093Z,35.11
2019-02-17T12:47:43.392Z,34.35
2019-02-17T12:50:15.088Z,34.14
2019-02-17T12:52:47.476Z,34.87
2019-02-17T12:55:19.339Z,35.27
2019-02-17T12:57:50.598Z,35.35
2019-02-17T13:00:21.941Z,34.42
2019-02-17T13:02:53.156Z,34.37
2019-02-17T13:05:24.486Z,35.69
2019-02-17T13:07:55.793Z,34.99
2019-02-17T13:10:29.077Z,35.23
2019-02-17T13:12:59.983Z,35.80
2019-02-17T13:15:31.260Z,35.69
2019-02-17T13:18:02.690Z,34.62
2019-02-17T13:20:34.079Z,34.91
2019-02-17T13:23:05.868Z,35.44
2019-02-17T13:25:38.250Z,35.45
2019-02-17T13:28:11.333Z,34.52
2019-02-17T13:30:42.645Z,35.03
2019-02-17T13:33:14.146Z,35.04
2019-02-17T13:35:45.463Z,35.35
2019-02-17T13:38:16.838Z,35.25
2019-02-17T13:40:48.279Z,35.51
2019-02-17T13:43:19.572Z,35.72
2019-02-17T13:45:50.796Z,34.61
2019-02-17T13:48:22.145Z,34.02
2019-02-17T13:50:53.379Z,33.60
2019-02-17T13:53:24.630Z,34.23
2019-02-17T13:55:55.825Z,34.07
2019-02-17T13:58:27.079Z,34.67
2019-02-17T14:00:58.268Z,34.38
2019-02-17T14:03:29.510Z,34.65
2019-02-17T14:06:00.733Z,34.47
2019-02-17T14:08:31.969Z,34.39
2019-02-17T14:11:03.222Z,35.65
2019-02-17T14:13:34.340Z,34.43
2019-02-17T14:16:05.534Z,34.24
2019-02-17T14:18:36.806Z,34.40
2019-02-17T14:21:08.064Z,34.07
2019-02-17T14:23:39.384Z,34.64
2019-02-17T14:26:10.620Z,33.82
2019-02-17T14:28:41.915Z,33.09
2019-02-17T14:31:13.195Z,33.78
2019-02-17T14:33:44.462Z,33.40
2019-02-17T14:36:15.732Z,34.01
2019-02-17T14:38:47.041Z,34.07
2019-02-17T14:41:18.311Z,34.05
2019-02-17T14:43:49.577Z,32.31
2019-02-17T14:46:20.815Z,32.44
2019-02-17T14:48:52.030Z,32.30
2019-02-17T14:51:23.326Z,33.25
2019-02-17T14:53:54.551Z,32.17
2019-02-17T14:56:25.739Z,31.34
2019-02-17T14:58:56.942Z,31.73
2019-02-17T15:01:28.195Z,31.87
2019-02-17T15:04:08.109Z,31.90
2019-02-17T15:06:32.315Z,31.17
2019-02-17T15:09:05.281Z,32.06
2019-02-17T15:11:36.536Z,31.73
2019-02-17T15:14:07.836Z,32.20
2019-02-17T15:16:39.069Z,32.30
2019-02-17T15:19:10.364Z,31.80
2019-02-17T15:21:41.637Z,32.39
2019-02-17T15:24:12.921Z,32.09
2019-02-17T15:26:44.145Z,32.23
2019-02-17T15:29:15.799Z,32.49
2019-02-17T15:31:47.058Z,33.04
2019-02-17T15:34:19.030Z,33.22
2019-02-17T15:36:50.398Z,33.50
2019-02-17T15:39:21.824Z,34.54
2019-02-17T15:41:53.169Z,34.43
2019-02-17T15:44:24.423Z,33.73
2019-02-17T15:46:55.723Z,34.07
2019-02-17T15:49:26.870Z,34.01
2019-02-17T15:51:58.326Z,33.77
2019-02-17T15:54:48.594Z,34.29
2019-02-17T15:57:19.902Z,33.99
2019-02-17T15:59:51.107Z,33.88
2019-02-17T16:02:22.411Z,34.02
2019-02-17T16:04:53.704Z,34.11
2019-02-17T16:07:25.029Z,34.29
2019-02-17T16:09:56.343Z,34.50
2019-02-17T16:12:30.008Z,34.89
2019-02-17T16:15:01.317Z,35.25
2019-02-17T16:17:32.622Z,35.65
2019-02-17T16:20:03.840Z,35.79
2019-02-17T16:22:35.010Z,35.95
2019-02-17T16:25:06.416Z,35.84
2019-02-17T16:27:37.668Z,36.22
2019-02-17T16:30:12.995Z,36.71
2019-02-17T16:32:44.240Z,36.75
2019-02-17T16:35:16.069Z,36.83
2019-02-17T16:37:47.416Z,37.06
2019-02-17T16:40:18.798Z,37.32
2019-02-17T16:42:49.952Z,37.56
2019-02-17T16:45:21.446Z,37.88
2019-02-17T16:47:52.762Z,38.26
2019-02-17T16:50:24.097Z,38.65
2019-02-17T16:52:55.419Z,39.09
2019-02-17T16:55:26.707Z,39.63
2019-02-17T16:57:58.095Z,40.29
2019-02-17T17:00:29.397Z,41.01
2019-02-17T17:03:19.679Z,41.05
2019-02-17T17:05:50.902Z,42.45
2019-02-17T17:08:23.792Z,42.82
2019-02-17T17:10:55.060Z,44.03
2019-02-17T17:13:26.806Z,44.18
2019-02-17T17:15:58.239Z,44.95
2019-02-17T17:18:29.597Z,46.47
2019-02-17T17:21:00.908Z,47.75
2019-02-17T17:23:32.163Z,48.41
2019-02-17T17:26:03.451Z,48.30
2019-02-17T17:28:34.720Z,46.36
2019-02-17T17:31:05.987Z,45.44
2019-02-17T17:33:37.240Z,45.63
2019-02-17T17:36:08.640Z,45.44
2019-02-17T17:38:44.197Z,45.69
2019-02-17T17:41:15.447Z,46.21
2019-02-17T17:43:46.584Z,46.93
2019-02-17T17:46:23.844Z,46.67
2019-02-17T17:48:55.181Z,45.43
2019-02-17T17:51:26.490Z,44.78
2019-02-17T17:53:58.182Z,44.10
2019-02-17T17:56:29.466Z,44.02
2019-02-17T17:59:00.794Z,44.16
2019-02-17T18:01:32.066Z,44.23
2019-02-17T18:04:03.437Z,44.29
2019-02-17T18:06:34.696Z,44.81
2019-02-17T18:09:07.919Z,45.46
2019-02-17T18:11:39.245Z,45.83
2019-02-17T18:14:10.555Z,45.69
2019-02-17T18:16:41.890Z,46.28
2019-02-17T18:19:13.211Z,46.65
2019-02-17T18:21:44.617Z,46.95
2019-02-17T18:24:15.895Z,48.39
2019-02-17T18:26:47.206Z,48.44
2019-02-17T18:29:18.483Z,49.37
2019-02-17T18:31:49.772Z,50.44
2019-02-17T18:34:21.060Z,51.31
2019-02-17T18:36:52.433Z,51.85
2019-02-17T18:39:23.726Z,52.23
2019-02-17T18:41:55.589Z,50.75
2019-02-17T18:44:26.853Z,49.92
2019-02-17T18:46:58.206Z,48.76
2019-02-17T18:49:29.446Z,47.78
2019-02-17T18:52:00.778Z,46.91
2019-02-17T18:54:32.064Z,46.21
2019-02-17T18:57:08.293Z,46.03
2019-02-17T18:59:36.266Z,47.24
2019-02-17T19:02:09.853Z,47.45
2019-02-17T19:04:42.345Z,47.10
2019-02-17T19:07:13.630Z,47.48
2019-02-17T19:09:45.042Z,48.12
2019-02-17T19:12:16.354Z,47.19
2019-02-17T19:14:47.662Z,47.20
2019-02-17T19:17:18.990Z,47.22
2019-02-17T19:19:50.354Z,46.69
2019-02-17T19:22:21.716Z,46.53
2019-02-17T19:24:53.092Z,46.13
2019-02-17T19:27:24.302Z,45.56
2019-02-17T19:29:55.623Z,45.29
2019-02-17T19:32:26.947Z,45.25
2019-02-17T19:34:58.235Z,45.00
2019-02-17T19:37:29.663Z,45.47
2019-02-17T19:40:00.922Z,45.30
2019-02-17T19:42:32.219Z,45.33
2019-02-17T19:45:03.501Z,44.90
2019-02-17T19:47:34.786Z,45.26
2019-02-17T19:50:06.292Z,45.74
2019-02-17T19:52:37.659Z,45.62
2019-02-17T19:55:13.668Z,45.91
2019-02-17T19:57:45.093Z,45.94
2019-02-17T20:00:16.508Z,45.89
2019-02-17T20:03:05.374Z,46.28
2019-02-17T20:05:38.861Z,46.49
2019-02-17T20:08:10.192Z,46.40
2019-02-17T20:10:42.036Z,46.74
2019-02-17T20:13:13.418Z,46.99
2019-02-17T20:15:44.682Z,46.85
2019-02-17T20:18:15.948Z,46.84
2019-02-17T20:20:47.260Z,46.35
2019-02-17T20:23:18.623Z,46.69
2019-02-17T20:25:49.903Z,47.07
2019-02-17T20:30:50.325Z,47.76
2019-02-17T20:33:21.619Z,48.17
2019-02-17T20:36:02.424Z,48.20
2019-02-17T20:38:26.392Z,48.48
2019-02-17T20:40:57.590Z,48.54
2019-02-17T20:43:28.905Z,48.82
2019-02-17T20:46:00.214Z,48.94
2019-02-17T20:48:31.600Z,49.14
2019-02-17T20:51:02.957Z,49.12
2019-02-17T20:53:34.503Z,49.40
2019-02-17T20:56:06.235Z,49.77
2019-02-17T20:58:37.730Z,50.19
2019-02-17T21:01:09.254Z,50.62
2019-02-17T21:03:40.595Z,51.00
2019-02-17T21:06:13.058Z,52.29
2019-02-17T21:08:44.445Z,52.23
2019-02-17T21:11:15.790Z,52.88
2019-02-17T21:13:47.041Z,53.11
2019-02-17T21:16:18.324Z,53.50
2019-02-17T21:18:49.589Z,54.36
2019-02-17T21:21:20.768Z,54.50
2019-02-17T21:23:52.132Z,54.76
2019-02-17T21:26:26.244Z,55.04
2019-02-17T21:28:56.363Z,56.32
2019-02-17T21:31:27.615Z,56.43
2019-02-17T21:34:20.929Z,56.61
2019-02-17T21:36:52.188Z,54.69
2019-02-17T21:39:23.481Z,53.67
2019-02-17T21:41:54.788Z,52.79
2019-02-17T21:44:26.148Z,52.36
2019-02-17T21:46:57.472Z,52.35
2019-02-17T21:49:28.697Z,52.86
2019-02-17T21:51:59.975Z,53.10
2019-02-17T21:54:31.287Z,53.03
2019-02-17T21:57:02.595Z,53.72
2019-02-17T21:59:33.900Z,54.30
2019-02-17T22:02:05.279Z,54.34
2019-02-17T22:04:36.865Z,55.69
2019-02-17T22:07:08.177Z,56.15
2019-02-17T22:09:39.488Z,56.37
2019-02-17T22:12:10.663Z,56.82
2019-02-17T22:14:41.919Z,57.95
2019-02-17T22:17:13.161Z,59.59
2019-02-17T22:19:44.459Z,59.88
2019-02-17T22:22:15.912Z,59.87
2019-02-17T22:24:50.585Z,60.98
2019-02-17T22:27:21.793Z,60.56
2019-02-17T22:29:53.044Z,60.03
2019-02-17T22:32:24.304Z,60.67
2019-02-17T22:34:55.505Z,60.86
2019-02-17T22:37:26.797Z,61.16
2019-02-17T22:39:58.020Z,61.16
2019-02-17T22:42:29.231Z,62.44
2019-02-17T22:45:00.477Z,62.90
2019-02-17T22:47:31.785Z,63.76
2019-02-17T22:50:03.008Z,63.96
2019-02-17T22:52:34.205Z,64.27
2019-02-17T22:55:06.011Z,64.54
2019-02-17T22:57:37.310Z,65.77
2019-02-17T23:00:41.007Z,65.12
2019-02-17T23:03:12.332Z,63.92
2019-02-17T23:05:43.577Z,65.09
2019-02-17T23:08:14.884Z,65.50
2019-02-17T23:10:46.170Z,66.03
2019-02-17T23:13:17.415Z,66.37
2019-02-17T23:15:48.580Z,66.08
2019-02-17T23:18:19.769Z,67.00
2019-02-17T23:20:51.080Z,67.10
2019-02-17T23:23:22.291Z,66.80
2019-02-17T23:25:53.545Z,66.86
2019-02-17T23:28:24.729Z,67.66
2019-02-17T23:30:56.060Z,68.36
2019-02-17T23:33:27.419Z,68.14
2019-02-17T23:35:58.674Z,67.47
2019-02-17T23:38:29.876Z,69.04
2019-02-17T23:41:01.170Z,70.05
2019-02-17T23:43:32.417Z,70.38
2019-02-17T23:46:04.656Z,69.69
2019-02-17T23:48:35.936Z,70.95
2019-02-17T23:51:07.210Z,71.39
2019-02-17T23:53:38.608Z,72.05
2019-02-17T23:56:09.957Z,73.00
2019-02-17T23:58:41.236Z,73.58
